KAUO/AUO METAR and TAF weather

Enter ICAO airport designator
Station Type Date Time Source
KAUO METAR 2020/07/05 14:56 UTC NOAA

KAUO 051456Z AUTO 16009KT 10SM FEW021 28/23 A2999 RMK AO2 SLP162 T02780228 51007 $


Station Type Date Time Source
KAUO Decoded METAR 2020/07/05 14:56 UTC NOAA

Auburn-Opelika Airport, AL, United States (KAUO) 32-37N 085-26W
Jul 05, 2020 - 10:56 AM EDT / 2020.07.05 1456 UTC
Wind: from the SSE (160 degrees) at 10 MPH (9 KT):0
Visibility: 10 mile(s):0
Sky conditions: mostly clear
Temperature: 82.0 F (27.8 C)
Dew Point: 73.0 F (22.8 C)
Relative Humidity: 74%
Pressure (altimeter): 29.99 in. Hg (1015 hPa)
Pressure tendency: 0.02 inches (0.7 hPa) higher than three hours ago
ob: KAUO 051456Z AUTO 16009KT 10SM FEW021 28/23 A2999 RMK AO2 SLP162 T02780228 51007
cycle: 15

Station Type Date Time Source
KAUO TAF UTC NOAA

Error!

Example: see airport list